sensor_id;sensor_type;location;lat;lon;timestamp;P1;durP1;ratioP1;P2;durP2;ratioP2
21480;SDS011;10902;48.158;8.634;2023-06-14T00:01:46;10.70;;;5.13;;
21480;SDS011;10902;48.158;8.634;2023-06-14T00:04:32;8.50;;;5.82;;
21480;SDS011;10902;48.158;8.634;2023-06-14T00:07:18;9.32;;;5.45;;
21480;SDS011;10902;48.158;8.634;2023-06-14T00:10:09;9.48;;;5.50;;
21480;SDS011;10902;48.158;8.634;2023-06-14T00:12:56;9.02;;;4.97;;
21480;SDS011;10902;48.158;8.634;2023-06-14T00:15:41;7.55;;;4.50;;
21480;SDS011;10902;48.158;8.634;2023-06-14T00:18:27;6.75;;;4.70;;
21480;SDS011;10902;48.158;8.634;2023-06-14T00:21:14;8.55;;;4.38;;
21480;SDS011;10902;48.158;8.634;2023-06-14T00:24:00;8.20;;;5.07;;
21480;SDS011;10902;48.158;8.634;2023-06-14T00:26:46;8.57;;;5.50;;
21480;SDS011;10902;48.158;8.634;2023-06-14T00:29:32;9.57;;;4.80;;
21480;SDS011;10902;48.158;8.634;2023-06-14T00:32:18;9.13;;;5.13;;
21480;SDS011;10902;48.158;8.634;2023-06-14T00:35:03;7.45;;;4.95;;
21480;SDS011;10902;48.158;8.634;2023-06-14T00:37:49;10.15;;;5.50;;
21480;SDS011;10902;48.158;8.634;2023-06-14T00:40:35;8.60;;;5.53;;
21480;SDS011;10902;48.158;8.634;2023-06-14T00:43:20;9.65;;;6.00;;
21480;SDS011;10902;48.158;8.634;2023-06-14T00:46:06;7.53;;;5.63;;
21480;SDS011;10902;48.158;8.634;2023-06-14T00:48:51;7.25;;;5.38;;
21480;SDS011;10902;48.158;8.634;2023-06-14T00:51:38;8.82;;;5.75;;
21480;SDS011;10902;48.158;8.634;2023-06-14T00:54:24;11.23;;;5.78;;
21480;SDS011;10902;48.158;8.634;2023-06-14T00:57:10;11.73;;;5.50;;
21480;SDS011;10902;48.158;8.634;2023-06-14T00:59:57;10.18;;;6.15;;
21480;SDS011;10902;48.158;8.634;2023-06-14T01:02:42;8.45;;;5.70;;
21480;SDS011;10902;48.158;8.634;2023-06-14T01:05:28;8.95;;;5.20;;
21480;SDS011;10902;48.158;8.634;2023-06-14T01:11:16;8.32;;;5.60;;
21480;SDS011;10902;48.158;8.634;2023-06-14T01:14:16;13.00;;;5.78;;
21480;SDS011;10902;48.158;8.634;2023-06-14T01:17:03;10.32;;;6.47;;
21480;SDS011;10902;48.158;8.634;2023-06-14T01:19:50;8.07;;;5.50;;
21480;SDS011;10902;48.158;8.634;2023-06-14T01:22:52;8.13;;;5.63;;
21480;SDS011;10902;48.158;8.634;2023-06-14T01:25:38;9.45;;;5.60;;
21480;SDS011;10902;48.158;8.634;2023-06-14T01:28:25;7.72;;;5.47;;
21480;SDS011;10902;48.158;8.634;2023-06-14T01:31:18;7.85;;;5.53;;
21480;SDS011;10902;48.158;8.634;2023-06-14T01:34:07;7.60;;;5.25;;
21480;SDS011;10902;48.158;8.634;2023-06-14T01:36:53;8.10;;;5.53;;
21480;SDS011;10902;48.158;8.634;2023-06-14T01:39:40;7.25;;;4.97;;
21480;SDS011;10902;48.158;8.634;2023-06-14T01:42:28;8.80;;;4.85;;
21480;SDS011;10902;48.158;8.634;2023-06-14T01:45:14;9.27;;;5.68;;
21480;SDS011;10902;48.158;8.634;2023-06-14T01:48:01;9.18;;;6.10;;
21480;SDS011;10902;48.158;8.634;2023-06-14T01:50:48;9.02;;;5.75;;
21480;SDS011;10902;48.158;8.634;2023-06-14T01:53:34;7.60;;;5.68;;
21480;SDS011;10902;48.158;8.634;2023-06-14T01:56:21;9.75;;;5.60;;
21480;SDS011;10902;48.158;8.634;2023-06-14T01:59:06;8.25;;;5.32;;
21480;SDS011;10902;48.158;8.634;2023-06-14T02:01:52;7.30;;;4.97;;
21480;SDS011;10902;48.158;8.634;2023-06-14T02:04:38;8.38;;;5.82;;
21480;SDS011;10902;48.158;8.634;2023-06-14T02:07:23;9.45;;;5.78;;
21480;SDS011;10902;48.158;8.634;2023-06-14T02:10:09;7.78;;;5.32;;
21480;SDS011;10902;48.158;8.634;2023-06-14T02:12:55;8.27;;;6.30;;
21480;SDS011;10902;48.158;8.634;2023-06-14T02:15:40;10.23;;;6.03;;
21480;SDS011;10902;48.158;8.634;2023-06-14T02:18:28;10.60;;;6.38;;
21480;SDS011;10902;48.158;8.634;2023-06-14T02:21:14;7.72;;;5.88;;
21480;SDS011;10902;48.158;8.634;2023-06-14T02:24:00;8.00;;;6.15;;
21480;SDS011;10902;48.158;8.634;2023-06-14T02:26:46;9.48;;;6.32;;
21480;SDS011;10902;48.158;8.634;2023-06-14T02:29:32;8.73;;;6.47;;
21480;SDS011;10902;48.158;8.634;2023-06-14T02:32:17;9.88;;;6.55;;
21480;SDS011;10902;48.158;8.634;2023-06-14T02:35:03;10.05;;;6.30;;
21480;SDS011;10902;48.158;8.634;2023-06-14T02:37:49;9.32;;;6.10;;
21480;SDS011;10902;48.158;8.634;2023-06-14T02:40:36;10.32;;;6.38;;
21480;SDS011;10902;48.158;8.634;2023-06-14T02:43:21;9.15;;;6.55;;
21480;SDS011;10902;48.158;8.634;2023-06-14T02:46:07;12.27;;;6.05;;
21480;SDS011;10902;48.158;8.634;2023-06-14T02:48:52;8.57;;;6.03;;
21480;SDS011;10902;48.158;8.634;2023-06-14T02:51:38;10.98;;;6.15;;
21480;SDS011;10902;48.158;8.634;2023-06-14T02:54:23;10.00;;;6.10;;
21480;SDS011;10902;48.158;8.634;2023-06-14T02:57:09;8.23;;;6.22;;
21480;SDS011;10902;48.158;8.634;2023-06-14T02:59:55;7.55;;;5.05;;
21480;SDS011;10902;48.158;8.634;2023-06-14T03:02:41;8.63;;;5.78;;
21480;SDS011;10902;48.158;8.634;2023-06-14T03:05:27;9.23;;;6.30;;
21480;SDS011;10902;48.158;8.634;2023-06-14T03:08:13;10.82;;;6.57;;
21480;SDS011;10902;48.158;8.634;2023-06-14T03:11:01;9.80;;;6.78;;
21480;SDS011;10902;48.158;8.634;2023-06-14T03:13:47;11.88;;;7.10;;
21480;SDS011;10902;48.158;8.634;2023-06-14T03:16:32;9.98;;;7.68;;
21480;SDS011;10902;48.158;8.634;2023-06-14T03:19:18;11.50;;;7.10;;
21480;SDS011;10902;48.158;8.634;2023-06-14T03:22:04;9.57;;;6.82;;
21480;SDS011;10902;48.158;8.634;2023-06-14T03:24:49;10.10;;;7.35;;
21480;SDS011;10902;48.158;8.634;2023-06-14T03:27:36;11.95;;;7.18;;
21480;SDS011;10902;48.158;8.634;2023-06-14T03:30:23;11.85;;;7.03;;
21480;SDS011;10902;48.158;8.634;2023-06-14T03:33:08;11.30;;;7.53;;
21480;SDS011;10902;48.158;8.634;2023-06-14T03:35:54;10.98;;;7.00;;
21480;SDS011;10902;48.158;8.634;2023-06-14T03:38:41;9.10;;;6.47;;
21480;SDS011;10902;48.158;8.634;2023-06-14T03:41:26;9.57;;;6.43;;
21480;SDS011;10902;48.158;8.634;2023-06-14T03:44:14;8.90;;;6.35;;
21480;SDS011;10902;48.158;8.634;2023-06-14T03:47:00;11.48;;;6.38;;
21480;SDS011;10902;48.158;8.634;2023-06-14T03:49:46;10.77;;;7.07;;
21480;SDS011;10902;48.158;8.634;2023-06-14T03:52:31;10.68;;;6.78;;
21480;SDS011;10902;48.158;8.634;2023-06-14T03:55:18;11.10;;;7.00;;
21480;SDS011;10902;48.158;8.634;2023-06-14T03:58:03;9.13;;;6.63;;
21480;SDS011;10902;48.158;8.634;2023-06-14T04:00:49;10.27;;;6.70;;
21480;SDS011;10902;48.158;8.634;2023-06-14T04:03:35;11.35;;;6.80;;
21480;SDS011;10902;48.158;8.634;2023-06-14T04:06:21;13.65;;;7.43;;
21480;SDS011;10902;48.158;8.634;2023-06-14T04:09:07;13.98;;;7.57;;
21480;SDS011;10902;48.158;8.634;2023-06-14T04:11:53;10.40;;;7.80;;
21480;SDS011;10902;48.158;8.634;2023-06-14T04:14:39;10.60;;;7.57;;
21480;SDS011;10902;48.158;8.634;2023-06-14T04:17:25;16.48;;;7.97;;
21480;SDS011;10902;48.158;8.634;2023-06-14T04:20:10;10.95;;;7.18;;
21480;SDS011;10902;48.158;8.634;2023-06-14T04:22:56;10.85;;;7.60;;
21480;SDS011;10902;48.158;8.634;2023-06-14T04:25:42;12.05;;;7.38;;
21480;SDS011;10902;48.158;8.634;2023-06-14T04:28:30;11.80;;;6.85;;
21480;SDS011;10902;48.158;8.634;2023-06-14T04:31:15;11.30;;;7.00;;
21480;SDS011;10902;48.158;8.634;2023-06-14T04:34:01;8.90;;;7.20;;
21480;SDS011;10902;48.158;8.634;2023-06-14T04:36:50;10.80;;;6.97;;
21480;SDS011;10902;48.158;8.634;2023-06-14T04:39:38;9.40;;;7.00;;
21480;SDS011;10902;48.158;8.634;2023-06-14T04:42:23;11.48;;;7.30;;
21480;SDS011;10902;48.158;8.634;2023-06-14T04:45:15;9.98;;;6.25;;
21480;SDS011;10902;48.158;8.634;2023-06-14T04:48:01;11.85;;;7.28;;
21480;SDS011;10902;48.158;8.634;2023-06-14T04:50:47;9.98;;;7.00;;
21480;SDS011;10902;48.158;8.634;2023-06-14T04:53:33;10.18;;;6.75;;
21480;SDS011;10902;48.158;8.634;2023-06-14T04:56:19;10.23;;;7.15;;
21480;SDS011;10902;48.158;8.634;2023-06-14T04:59:04;10.93;;;6.95;;
21480;SDS011;10902;48.158;8.634;2023-06-14T05:01:50;8.82;;;6.70;;
21480;SDS011;10902;48.158;8.634;2023-06-14T05:04:36;9.75;;;6.93;;
21480;SDS011;10902;48.158;8.634;2023-06-14T05:07:24;10.70;;;7.50;;
21480;SDS011;10902;48.158;8.634;2023-06-14T05:10:10;9.82;;;7.25;;
21480;SDS011;10902;48.158;8.634;2023-06-14T05:12:56;10.65;;;7.38;;
21480;SDS011;10902;48.158;8.634;2023-06-14T05:15:41;8.90;;;6.70;;
21480;SDS011;10902;48.158;8.634;2023-06-14T05:18:27;10.02;;;7.20;;
21480;SDS011;10902;48.158;8.634;2023-06-14T05:21:13;9.45;;;7.03;;
21480;SDS011;10902;48.158;8.634;2023-06-14T05:24:03;9.63;;;7.07;;
21480;SDS011;10902;48.158;8.634;2023-06-14T05:26:48;10.07;;;7.35;;
21480;SDS011;10902;48.158;8.634;2023-06-14T05:29:34;10.80;;;7.03;;
21480;SDS011;10902;48.158;8.634;2023-06-14T05:32:20;14.57;;;7.10;;
21480;SDS011;10902;48.158;8.634;2023-06-14T05:35:06;11.77;;;7.47;;
21480;SDS011;10902;48.158;8.634;2023-06-14T05:37:52;13.18;;;8.05;;
21480;SDS011;10902;48.158;8.634;2023-06-14T05:40:38;10.98;;;8.13;;
21480;SDS011;10902;48.158;8.634;2023-06-14T05:43:24;12.20;;;7.97;;
21480;SDS011;10902;48.158;8.634;2023-06-14T05:46:10;13.00;;;8.30;;
21480;SDS011;10902;48.158;8.634;2023-06-14T05:48:55;10.07;;;8.05;;
21480;SDS011;10902;48.158;8.634;2023-06-14T05:51:41;11.70;;;8.13;;
21480;SDS011;10902;48.158;8.634;2023-06-14T05:54:26;9.07;;;7.30;;
21480;SDS011;10902;48.158;8.634;2023-06-14T05:57:12;11.52;;;8.25;;
21480;SDS011;10902;48.158;8.634;2023-06-14T05:59:57;10.52;;;6.97;;
21480;SDS011;10902;48.158;8.634;2023-06-14T06:02:44;9.55;;;6.93;;
21480;SDS011;10902;48.158;8.634;2023-06-14T06:05:30;9.52;;;7.50;;
21480;SDS011;10902;48.158;8.634;2023-06-14T06:08:16;10.88;;;7.80;;
21480;SDS011;10902;48.158;8.634;2023-06-14T06:11:02;10.73;;;7.07;;
21480;SDS011;10902;48.158;8.634;2023-06-14T06:13:47;11.75;;;7.30;;
21480;SDS011;10902;48.158;8.634;2023-06-14T06:16:33;11.65;;;7.47;;
21480;SDS011;10902;48.158;8.634;2023-06-14T06:19:18;10.50;;;6.68;;
21480;SDS011;10902;48.158;8.634;2023-06-14T06:22:04;11.82;;;7.18;;
21480;SDS011;10902;48.158;8.634;2023-06-14T06:24:51;8.63;;;6.38;;
21480;SDS011;10902;48.158;8.634;2023-06-14T06:27:36;11.90;;;7.07;;
21480;SDS011;10902;48.158;8.634;2023-06-14T06:30:22;9.73;;;6.65;;
21480;SDS011;10902;48.158;8.634;2023-06-14T06:33:08;7.80;;;5.72;;
21480;SDS011;10902;48.158;8.634;2023-06-14T06:35:54;9.90;;;6.65;;
21480;SDS011;10902;48.158;8.634;2023-06-14T06:38:40;9.00;;;6.13;;
21480;SDS011;10902;48.158;8.634;2023-06-14T06:41:25;10.68;;;5.60;;
21480;SDS011;10902;48.158;8.634;2023-06-14T06:44:11;7.90;;;5.30;;
21480;SDS011;10902;48.158;8.634;2023-06-14T06:46:57;11.43;;;5.70;;
21480;SDS011;10902;48.158;8.634;2023-06-14T06:49:43;9.88;;;5.75;;
21480;SDS011;10902;48.158;8.634;2023-06-14T06:52:29;9.48;;;5.63;;
21480;SDS011;10902;48.158;8.634;2023-06-14T06:55:14;10.90;;;5.50;;
21480;SDS011;10902;48.158;8.634;2023-06-14T06:58:00;8.65;;;5.38;;
21480;SDS011;10902;48.158;8.634;2023-06-14T07:00:45;7.03;;;5.43;;
21480;SDS011;10902;48.158;8.634;2023-06-14T07:03:31;7.60;;;4.95;;
21480;SDS011;10902;48.158;8.634;2023-06-14T07:06:16;7.45;;;4.72;;
21480;SDS011;10902;48.158;8.634;2023-06-14T07:09:03;8.50;;;4.90;;
21480;SDS011;10902;48.158;8.634;2023-06-14T07:11:53;9.05;;;4.88;;
21480;SDS011;10902;48.158;8.634;2023-06-14T07:14:38;8.43;;;4.50;;
21480;SDS011;10902;48.158;8.634;2023-06-14T07:17:24;7.55;;;4.78;;
21480;SDS011;10902;48.158;8.634;2023-06-14T07:20:09;6.82;;;4.65;;
21480;SDS011;10902;48.158;8.634;2023-06-14T07:22:58;11.13;;;5.20;;
21480;SDS011;10902;48.158;8.634;2023-06-14T07:25:44;7.88;;;4.90;;
21480;SDS011;10902;48.158;8.634;2023-06-14T07:28:30;8.98;;;5.00;;
21480;SDS011;10902;48.158;8.634;2023-06-14T07:31:15;7.72;;;4.85;;
21480;SDS011;10902;48.158;8.634;2023-06-14T07:34:01;6.90;;;4.63;;
21480;SDS011;10902;48.158;8.634;2023-06-14T07:36:47;6.85;;;4.90;;
21480;SDS011;10902;48.158;8.634;2023-06-14T07:39:33;11.07;;;5.20;;
21480;SDS011;10902;48.158;8.634;2023-06-14T07:42:19;8.48;;;4.70;;
21480;SDS011;10902;48.158;8.634;2023-06-14T07:45:05;7.97;;;4.55;;
21480;SDS011;10902;48.158;8.634;2023-06-14T07:47:51;8.55;;;4.97;;
21480;SDS011;10902;48.158;8.634;2023-06-14T07:50:36;9.75;;;4.85;;
21480;SDS011;10902;48.158;8.634;2023-06-14T07:53:22;7.45;;;4.55;;
21480;SDS011;10902;48.158;8.634;2023-06-14T07:56:08;8.68;;;4.50;;
21480;SDS011;10902;48.158;8.634;2023-06-14T07:58:53;7.88;;;4.35;;
21480;SDS011;10902;48.158;8.634;2023-06-14T08:01:39;8.50;;;4.55;;
21480;SDS011;10902;48.158;8.634;2023-06-14T08:04:25;6.20;;;3.65;;
21480;SDS011;10902;48.158;8.634;2023-06-14T08:07:10;8.77;;;4.32;;
21480;SDS011;10902;48.158;8.634;2023-06-14T08:09:57;8.40;;;4.25;;
21480;SDS011;10902;48.158;8.634;2023-06-14T08:12:42;7.70;;;3.75;;
21480;SDS011;10902;48.158;8.634;2023-06-14T08:15:28;8.95;;;4.20;;
21480;SDS011;10902;48.158;8.634;2023-06-14T08:18:13;9.10;;;4.18;;
21480;SDS011;10902;48.158;8.634;2023-06-14T08:20:59;10.43;;;4.18;;
21480;SDS011;10902;48.158;8.634;2023-06-14T08:23:45;7.70;;;3.65;;
21480;SDS011;10902;48.158;8.634;2023-06-14T08:26:31;8.50;;;4.07;;
21480;SDS011;10902;48.158;8.634;2023-06-14T08:29:16;8.80;;;3.88;;
21480;SDS011;10902;48.158;8.634;2023-06-14T08:32:02;7.03;;;3.78;;
21480;SDS011;10902;48.158;8.634;2023-06-14T08:34:48;7.38;;;3.58;;
21480;SDS011;10902;48.158;8.634;2023-06-14T08:37:37;6.00;;;3.42;;
21480;SDS011;10902;48.158;8.634;2023-06-14T08:40:24;5.32;;;3.25;;
21480;SDS011;10902;48.158;8.634;2023-06-14T08:43:12;8.05;;;3.35;;
21480;SDS011;10902;48.158;8.634;2023-06-14T08:45:58;6.13;;;3.35;;
21480;SDS011;10902;48.158;8.634;2023-06-14T08:48:49;6.38;;;3.60;;
21480;SDS011;10902;48.158;8.634;2023-06-14T08:51:36;5.70;;;3.40;;
21480;SDS011;10902;48.158;8.634;2023-06-14T08:54:22;7.03;;;3.10;;
21480;SDS011;10902;48.158;8.634;2023-06-14T08:57:12;8.65;;;3.40;;
21480;SDS011;10902;48.158;8.634;2023-06-14T09:00:00;7.85;;;3.20;;
21480;SDS011;10902;48.158;8.634;2023-06-14T09:02:55;4.75;;;2.97;;
21480;SDS011;10902;48.158;8.634;2023-06-14T09:05:43;5.88;;;3.03;;
21480;SDS011;10902;48.158;8.634;2023-06-14T09:08:29;5.93;;;3.03;;
21480;SDS011;10902;48.158;8.634;2023-06-14T09:11:17;7.68;;;2.80;;
21480;SDS011;10902;48.158;8.634;2023-06-14T09:14:03;6.30;;;2.92;;
21480;SDS011;10902;48.158;8.634;2023-06-14T09:16:53;5.68;;;2.80;;
21480;SDS011;10902;48.158;8.634;2023-06-14T09:19:39;7.13;;;3.60;;
21480;SDS011;10902;48.158;8.634;2023-06-14T09:22:28;7.72;;;3.63;;
21480;SDS011;10902;48.158;8.634;2023-06-14T09:25:15;5.05;;;3.10;;
21480;SDS011;10902;48.158;8.634;2023-06-14T09:28:01;8.35;;;4.13;;
21480;SDS011;10902;48.158;8.634;2023-06-14T09:30:46;6.93;;;3.55;;
21480;SDS011;10902;48.158;8.634;2023-06-14T09:33:32;5.50;;;2.90;;
21480;SDS011;10902;48.158;8.634;2023-06-14T09:36:18;6.60;;;3.53;;
21480;SDS011;10902;48.158;8.634;2023-06-14T09:39:06;7.35;;;3.60;;
21480;SDS011;10902;48.158;8.634;2023-06-14T09:41:53;6.03;;;3.60;;
21480;SDS011;10902;48.158;8.634;2023-06-14T09:44:38;9.00;;;3.70;;
21480;SDS011;10902;48.158;8.634;2023-06-14T09:47:24;8.23;;;3.42;;
21480;SDS011;10902;48.158;8.634;2023-06-14T09:50:10;5.35;;;3.55;;
21480;SDS011;10902;48.158;8.634;2023-06-14T09:52:56;6.18;;;3.60;;
21480;SDS011;10902;48.158;8.634;2023-06-14T09:55:48;8.95;;;3.97;;
21480;SDS011;10902;48.158;8.634;2023-06-14T09:58:36;9.15;;;3.60;;
21480;SDS011;10902;48.158;8.634;2023-06-14T10:01:26;7.07;;;3.58;;
21480;SDS011;10902;48.158;8.634;2023-06-14T10:04:15;8.32;;;4.30;;
21480;SDS011;10902;48.158;8.634;2023-06-14T10:07:03;7.72;;;4.45;;
21480;SDS011;10902;48.158;8.634;2023-06-14T10:09:50;5.72;;;3.60;;
21480;SDS011;10902;48.158;8.634;2023-06-14T10:12:37;7.40;;;4.47;;
21480;SDS011;10902;48.158;8.634;2023-06-14T10:15:27;6.35;;;3.88;;
21480;SDS011;10902;48.158;8.634;2023-06-14T10:21:11;7.25;;;4.22;;
21480;SDS011;10902;48.158;8.634;2023-06-14T10:24:05;7.00;;;4.53;;
21480;SDS011;10902;48.158;8.634;2023-06-14T10:26:54;6.05;;;4.28;;
21480;SDS011;10902;48.158;8.634;2023-06-14T10:30:24;6.18;;;4.00;;
21480;SDS011;10902;48.158;8.634;2023-06-14T10:33:05;7.85;;;4.25;;
21480;SDS011;10902;48.158;8.634;2023-06-14T10:36:06;5.63;;;3.80;;
21480;SDS011;10902;48.158;8.634;2023-06-14T10:39:16;7.07;;;3.88;;
21480;SDS011;10902;48.158;8.634;2023-06-14T10:42:02;7.40;;;4.28;;
21480;SDS011;10902;48.158;8.634;2023-06-14T10:44:50;7.45;;;3.53;;
21480;SDS011;10902;48.158;8.634;2023-06-14T10:47:37;7.78;;;3.90;;
21480;SDS011;10902;48.158;8.634;2023-06-14T10:50:28;6.88;;;3.88;;
21480;SDS011;10902;48.158;8.634;2023-06-14T10:53:24;7.95;;;3.80;;
21480;SDS011;10902;48.158;8.634;2023-06-14T10:56:12;9.10;;;4.32;;
21480;SDS011;10902;48.158;8.634;2023-06-14T10:59:11;9.07;;;4.45;;
21480;SDS011;10902;48.158;8.634;2023-06-14T11:01:58;7.10;;;3.55;;
21480;SDS011;10902;48.158;8.634;2023-06-14T11:05:04;6.30;;;3.60;;
21480;SDS011;10902;48.158;8.634;2023-06-14T11:07:58;9.23;;;3.83;;
21480;SDS011;10902;48.158;8.634;2023-06-14T11:10:51;8.35;;;4.18;;
21480;SDS011;10902;48.158;8.634;2023-06-14T11:13:43;6.88;;;3.95;;
21480;SDS011;10902;48.158;8.634;2023-06-14T11:16:30;7.63;;;3.63;;
21480;SDS011;10902;48.158;8.634;2023-06-14T11:19:18;8.52;;;3.97;;
21480;SDS011;10902;48.158;8.634;2023-06-14T11:22:04;5.82;;;3.83;;
21480;SDS011;10902;48.158;8.634;2023-06-14T11:24:50;8.13;;;3.78;;
21480;SDS011;10902;48.158;8.634;2023-06-14T11:27:35;7.05;;;3.97;;
21480;SDS011;10902;48.158;8.634;2023-06-14T11:30:21;6.70;;;3.67;;
21480;SDS011;10902;48.158;8.634;2023-06-14T11:33:09;8.07;;;4.13;;
21480;SDS011;10902;48.158;8.634;2023-06-14T11:35:56;7.03;;;3.70;;
21480;SDS011;10902;48.158;8.634;2023-06-14T11:38:42;6.32;;;3.58;;
21480;SDS011;10902;48.158;8.634;2023-06-14T11:41:32;5.60;;;3.58;;
21480;SDS011;10902;48.158;8.634;2023-06-14T11:44:24;8.95;;;4.10;;
21480;SDS011;10902;48.158;8.634;2023-06-14T11:47:10;5.65;;;3.33;;
21480;SDS011;10902;48.158;8.634;2023-06-14T11:49:55;10.27;;;3.45;;
21480;SDS011;10902;48.158;8.634;2023-06-14T11:52:43;6.63;;;3.58;;
21480;SDS011;10902;48.158;8.634;2023-06-14T11:55:28;7.28;;;3.75;;
21480;SDS011;10902;48.158;8.634;2023-06-14T11:58:14;8.65;;;3.80;;
21480;SDS011;10902;48.158;8.634;2023-06-14T12:01:02;6.97;;;3.85;;
21480;SDS011;10902;48.158;8.634;2023-06-14T12:03:53;7.13;;;3.28;;
21480;SDS011;10902;48.158;8.634;2023-06-14T12:06:39;7.70;;;3.83;;
21480;SDS011;10902;48.158;8.634;2023-06-14T12:09:24;7.78;;;3.88;;
21480;SDS011;10902;48.158;8.634;2023-06-14T12:12:12;7.45;;;3.80;;
21480;SDS011;10902;48.158;8.634;2023-06-14T12:14:57;6.07;;;3.63;;
21480;SDS011;10902;48.158;8.634;2023-06-14T12:17:43;5.63;;;3.20;;
21480;SDS011;10902;48.158;8.634;2023-06-14T12:20:30;6.28;;;4.10;;
21480;SDS011;10902;48.158;8.634;2023-06-14T12:23:16;8.98;;;3.83;;
21480;SDS011;10902;48.158;8.634;2023-06-14T12:26:02;6.75;;;3.42;;
21480;SDS011;10902;48.158;8.634;2023-06-14T12:28:51;5.68;;;3.55;;
21480;SDS011;10902;48.158;8.634;2023-06-14T12:31:37;5.32;;;3.40;;
21480;SDS011;10902;48.158;8.634;2023-06-14T12:34:28;7.55;;;3.65;;
21480;SDS011;10902;48.158;8.634;2023-06-14T12:37:16;11.05;;;3.65;;
21480;SDS011;10902;48.158;8.634;2023-06-14T12:40:02;6.13;;;3.28;;
21480;SDS011;10902;48.158;8.634;2023-06-14T12:42:51;6.25;;;3.45;;
21480;SDS011;10902;48.158;8.634;2023-06-14T12:45:37;6.18;;;3.50;;
21480;SDS011;10902;48.158;8.634;2023-06-14T12:48:22;6.15;;;3.33;;
21480;SDS011;10902;48.158;8.634;2023-06-14T12:51:08;6.30;;;3.40;;
21480;SDS011;10902;48.158;8.634;2023-06-14T12:53:53;5.63;;;3.38;;
21480;SDS011;10902;48.158;8.634;2023-06-14T12:56:39;5.93;;;3.70;;
21480;SDS011;10902;48.158;8.634;2023-06-14T12:59:26;6.35;;;3.60;;
21480;SDS011;10902;48.158;8.634;2023-06-14T13:02:18;6.43;;;3.38;;
21480;SDS011;10902;48.158;8.634;2023-06-14T13:05:07;6.53;;;3.60;;
21480;SDS011;10902;48.158;8.634;2023-06-14T13:07:52;7.25;;;3.33;;
21480;SDS011;10902;48.158;8.634;2023-06-14T13:10:38;6.28;;;3.55;;
21480;SDS011;10902;48.158;8.634;2023-06-14T13:13:23;6.63;;;3.40;;
21480;SDS011;10902;48.158;8.634;2023-06-14T13:16:09;9.00;;;3.70;;
21480;SDS011;10902;48.158;8.634;2023-06-14T13:18:55;5.75;;;3.40;;
21480;SDS011;10902;48.158;8.634;2023-06-14T13:21:41;6.32;;;3.60;;
21480;SDS011;10902;48.158;8.634;2023-06-14T13:24:27;5.13;;;3.15;;
21480;SDS011;10902;48.158;8.634;2023-06-14T13:27:14;5.43;;;3.58;;
21480;SDS011;10902;48.158;8.634;2023-06-14T13:30:00;6.95;;;3.20;;
21480;SDS011;10902;48.158;8.634;2023-06-14T13:32:47;5.95;;;3.67;;
21480;SDS011;10902;48.158;8.634;2023-06-14T13:35:32;6.70;;;3.17;;
21480;SDS011;10902;48.158;8.634;2023-06-14T13:38:18;5.68;;;3.20;;
21480;SDS011;10902;48.158;8.634;2023-06-14T13:41:03;7.28;;;3.67;;
21480;SDS011;10902;48.158;8.634;2023-06-14T13:43:50;6.72;;;3.65;;
21480;SDS011;10902;48.158;8.634;2023-06-14T13:46:35;6.35;;;3.40;;
21480;SDS011;10902;48.158;8.634;2023-06-14T13:49:21;5.88;;;3.40;;
21480;SDS011;10902;48.158;8.634;2023-06-14T13:52:06;6.47;;;3.30;;
21480;SDS011;10902;48.158;8.634;2023-06-14T13:54:52;7.05;;;3.28;;
21480;SDS011;10902;48.158;8.634;2023-06-14T13:57:38;7.28;;;3.13;;
21480;SDS011;10902;48.158;8.634;2023-06-14T14:00:24;5.95;;;3.35;;
21480;SDS011;10902;48.158;8.634;2023-06-14T14:03:10;5.32;;;3.50;;
21480;SDS011;10902;48.158;8.634;2023-06-14T14:05:56;5.25;;;3.05;;
21480;SDS011;10902;48.158;8.634;2023-06-14T14:08:42;5.55;;;3.38;;
21480;SDS011;10902;48.158;8.634;2023-06-14T14:11:27;6.28;;;3.42;;
21480;SDS011;10902;48.158;8.634;2023-06-14T14:14:13;5.82;;;3.50;;
21480;SDS011;10902;48.158;8.634;2023-06-14T14:16:58;5.53;;;3.33;;
21480;SDS011;10902;48.158;8.634;2023-06-14T14:19:44;6.88;;;3.58;;
21480;SDS011;10902;48.158;8.634;2023-06-14T14:22:29;6.32;;;3.42;;
21480;SDS011;10902;48.158;8.634;2023-06-14T14:25:15;7.13;;;3.40;;
21480;SDS011;10902;48.158;8.634;2023-06-14T14:28:01;6.28;;;3.03;;
21480;SDS011;10902;48.158;8.634;2023-06-14T14:30:46;5.70;;;3.38;;
21480;SDS011;10902;48.158;8.634;2023-06-14T14:33:32;5.47;;;3.33;;
21480;SDS011;10902;48.158;8.634;2023-06-14T14:36:19;6.85;;;3.63;;
21480;SDS011;10902;48.158;8.634;2023-06-14T14:39:05;10.07;;;3.90;;
21480;SDS011;10902;48.158;8.634;2023-06-14T14:41:52;7.78;;;3.25;;
21480;SDS011;10902;48.158;8.634;2023-06-14T14:44:37;5.93;;;3.40;;
21480;SDS011;10902;48.158;8.634;2023-06-14T14:47:23;6.85;;;3.45;;
21480;SDS011;10902;48.158;8.634;2023-06-14T14:50:09;5.50;;;3.30;;
21480;SDS011;10902;48.158;8.634;2023-06-14T14:52:55;8.18;;;3.42;;
21480;SDS011;10902;48.158;8.634;2023-06-14T14:55:41;5.65;;;3.33;;
21480;SDS011;10902;48.158;8.634;2023-06-14T14:58:27;7.03;;;3.85;;
21480;SDS011;10902;48.158;8.634;2023-06-14T15:01:13;5.43;;;3.28;;
21480;SDS011;10902;48.158;8.634;2023-06-14T15:03:58;7.13;;;3.95;;
21480;SDS011;10902;48.158;8.634;2023-06-14T15:06:44;4.82;;;3.38;;
21480;SDS011;10902;48.158;8.634;2023-06-14T15:09:30;7.18;;;3.53;;
21480;SDS011;10902;48.158;8.634;2023-06-14T15:12:15;5.85;;;3.42;;
21480;SDS011;10902;48.158;8.634;2023-06-14T15:15:01;7.78;;;3.47;;
21480;SDS011;10902;48.158;8.634;2023-06-14T15:17:47;6.35;;;4.07;;
21480;SDS011;10902;48.158;8.634;2023-06-14T15:20:33;7.53;;;3.42;;
21480;SDS011;10902;48.158;8.634;2023-06-14T15:23:18;8.52;;;3.50;;
21480;SDS011;10902;48.158;8.634;2023-06-14T15:26:05;6.28;;;3.40;;
21480;SDS011;10902;48.158;8.634;2023-06-14T15:28:50;6.15;;;3.53;;
21480;SDS011;10902;48.158;8.634;2023-06-14T15:31:36;8.23;;;3.65;;
21480;SDS011;10902;48.158;8.634;2023-06-14T15:34:21;4.97;;;3.55;;
21480;SDS011;10902;48.158;8.634;2023-06-14T15:37:07;6.25;;;3.80;;
21480;SDS011;10902;48.158;8.634;2023-06-14T15:39:53;6.43;;;3.90;;
21480;SDS011;10902;48.158;8.634;2023-06-14T15:42:38;6.32;;;3.95;;
21480;SDS011;10902;48.158;8.634;2023-06-14T15:45:24;8.70;;;3.78;;
21480;SDS011;10902;48.158;8.634;2023-06-14T15:48:10;5.70;;;3.55;;
21480;SDS011;10902;48.158;8.634;2023-06-14T15:50:55;5.55;;;3.70;;
21480;SDS011;10902;48.158;8.634;2023-06-14T15:53:41;9.88;;;3.95;;
21480;SDS011;10902;48.158;8.634;2023-06-14T15:56:27;6.72;;;3.90;;
21480;SDS011;10902;48.158;8.634;2023-06-14T15:59:12;6.63;;;4.15;;
21480;SDS011;10902;48.158;8.634;2023-06-14T16:01:58;8.02;;;4.50;;
21480;SDS011;10902;48.158;8.634;2023-06-14T16:04:43;6.53;;;3.60;;
21480;SDS011;10902;48.158;8.634;2023-06-14T16:07:29;9.57;;;3.90;;
21480;SDS011;10902;48.158;8.634;2023-06-14T16:10:15;6.00;;;3.88;;
21480;SDS011;10902;48.158;8.634;2023-06-14T16:13:00;6.38;;;3.80;;
21480;SDS011;10902;48.158;8.634;2023-06-14T16:15:46;6.38;;;3.55;;
21480;SDS011;10902;48.158;8.634;2023-06-14T16:18:31;6.13;;;3.70;;
21480;SDS011;10902;48.158;8.634;2023-06-14T16:21:17;6.15;;;3.45;;
21480;SDS011;10902;48.158;8.634;2023-06-14T16:24:03;7.32;;;3.60;;
21480;SDS011;10902;48.158;8.634;2023-06-14T16:26:49;7.47;;;3.63;;
21480;SDS011;10902;48.158;8.634;2023-06-14T16:29:35;6.57;;;3.72;;
21480;SDS011;10902;48.158;8.634;2023-06-14T16:32:21;6.13;;;3.58;;
21480;SDS011;10902;48.158;8.634;2023-06-14T16:35:07;6.22;;;3.70;;
21480;SDS011;10902;48.158;8.634;2023-06-14T16:37:52;6.63;;;4.00;;
21480;SDS011;10902;48.158;8.634;2023-06-14T16:40:38;6.47;;;4.15;;
21480;SDS011;10902;48.158;8.634;2023-06-14T16:43:23;6.30;;;3.78;;
21480;SDS011;10902;48.158;8.634;2023-06-14T16:46:09;6.70;;;3.67;;
21480;SDS011;10902;48.158;8.634;2023-06-14T16:48:56;6.78;;;3.60;;